sensor_id;sensor_type;location;lat;lon;timestamp;pressure;altitude;pressure_sealevel;temperature;humidity
37852;BME280;23691;52.486;4.650;2023-02-20T00:01:21;102412.91;;;8.26;86.67
37852;BME280;23691;52.486;4.650;2023-02-20T00:03:46;102410.13;;;8.27;86.71
37852;BME280;23691;52.486;4.650;2023-02-20T00:06:12;102403.72;;;8.30;86.83
37852;BME280;23691;52.486;4.650;2023-02-20T00:08:37;102400.31;;;8.28;86.80
37852;BME280;23691;52.486;4.650;2023-02-20T00:11:03;102402.00;;;8.29;87.08
37852;BME280;23691;52.486;4.650;2023-02-20T00:13:28;102409.91;;;8.30;87.25
37852;BME280;23691;52.486;4.650;2023-02-20T00:15:54;102394.66;;;8.32;87.21
37852;BME280;23691;52.486;4.650;2023-02-20T00:18:19;102398.16;;;8.33;87.43
37852;BME280;23691;52.486;4.650;2023-02-20T00:20:45;102392.00;;;8.32;87.60
37852;BME280;23691;52.486;4.650;2023-02-20T00:23:10;102386.75;;;8.31;88.14
37852;BME280;23691;52.486;4.650;2023-02-20T00:25:36;102386.84;;;8.29;87.87
37852;BME280;23691;52.486;4.650;2023-02-20T00:28:02;102391.16;;;8.32;88.01
37852;BME280;23691;52.486;4.650;2023-02-20T00:30:28;102391.25;;;8.30;88.04
37852;BME280;23691;52.486;4.650;2023-02-20T00:32:55;102382.50;;;8.28;88.30
37852;BME280;23691;52.486;4.650;2023-02-20T00:35:21;102387.00;;;8.28;88.31
37852;BME280;23691;52.486;4.650;2023-02-20T00:37:47;102396.69;;;8.29;88.75
37852;BME280;23691;52.486;4.650;2023-02-20T00:40:13;102380.69;;;8.29;88.87
37852;BME280;23691;52.486;4.650;2023-02-20T00:42:40;102370.16;;;8.27;88.94
37852;BME280;23691;52.486;4.650;2023-02-20T00:45:06;102352.41;;;8.26;89.23
37852;BME280;23691;52.486;4.650;2023-02-20T00:47:31;102352.66;;;8.23;89.23
37852;BME280;23691;52.486;4.650;2023-02-20T00:49:57;102339.22;;;8.25;89.41
37852;BME280;23691;52.486;4.650;2023-02-20T00:52:22;102330.34;;;8.24;89.64
37852;BME280;23691;52.486;4.650;2023-02-20T00:54:48;102323.31;;;8.23;89.79
37852;BME280;23691;52.486;4.650;2023-02-20T00:57:13;102321.63;;;8.22;89.59
37852;BME280;23691;52.486;4.650;2023-02-20T00:59:39;102318.84;;;8.24;90.37
37852;BME280;23691;52.486;4.650;2023-02-20T01:02:04;102315.31;;;8.23;89.96
37852;BME280;23691;52.486;4.650;2023-02-20T01:04:30;102318.00;;;8.23;90.04
37852;BME280;23691;52.486;4.650;2023-02-20T01:06:55;102319.81;;;8.23;90.08
37852;BME280;23691;52.486;4.650;2023-02-20T01:09:21;102318.09;;;8.22;89.90
37852;BME280;23691;52.486;4.650;2023-02-20T01:11:46;102306.59;;;8.21;90.35
37852;BME280;23691;52.486;4.650;2023-02-20T01:14:12;102295.81;;;8.23;90.23
37852;BME280;23691;52.486;4.650;2023-02-20T01:16:49;102291.44;;;8.22;90.61
37852;BME280;23691;52.486;4.650;2023-02-20T01:19:20;102284.41;;;8.21;90.52
37852;BME280;23691;52.486;4.650;2023-02-20T01:21:45;102295.06;;;8.21;90.63
37852;BME280;23691;52.486;4.650;2023-02-20T01:24:13;102289.75;;;8.21;90.58
37852;BME280;23691;52.486;4.650;2023-02-20T01:26:40;102279.19;;;8.19;90.42
37852;BME280;23691;52.486;4.650;2023-02-20T01:29:06;102287.19;;;8.19;90.72
37852;BME280;23691;52.486;4.650;2023-02-20T01:31:31;102286.34;;;8.18;91.11
37852;BME280;23691;52.486;4.650;2023-02-20T01:33:57;102297.84;;;8.19;90.94
37852;BME280;23691;52.486;4.650;2023-02-20T01:36:22;102279.06;;;8.21;90.75
37852;BME280;23691;52.486;4.650;2023-02-20T01:38:48;102277.25;;;8.21;91.02
37852;BME280;23691;52.486;4.650;2023-02-20T01:41:17;102272.06;;;8.20;90.68
37852;BME280;23691;52.486;4.650;2023-02-20T01:43:44;102262.34;;;8.18;91.04
37852;BME280;23691;52.486;4.650;2023-02-20T01:49:10;102268.41;;;8.21;91.14
37852;BME280;23691;52.486;4.650;2023-02-20T01:51:41;102266.19;;;8.14;91.49
37852;BME280;23691;52.486;4.650;2023-02-20T01:54:09;102271.66;;;8.13;91.16
37852;BME280;23691;52.486;4.650;2023-02-20T01:56:36;102264.72;;;8.10;91.59
37852;BME280;23691;52.486;4.650;2023-02-20T01:59:02;102262.91;;;8.11;91.99
37852;BME280;23691;52.486;4.650;2023-02-20T02:01:30;102267.41;;;8.10;92.12
37852;BME280;23691;52.486;4.650;2023-02-20T02:03:59;102268.00;;;8.14;92.14
37852;BME280;23691;52.486;4.650;2023-02-20T02:06:27;102256.25;;;8.16;91.81
37852;BME280;23691;52.486;4.650;2023-02-20T02:08:56;102266.94;;;8.16;91.90
37852;BME280;23691;52.486;4.650;2023-02-20T02:11:24;102246.44;;;8.17;91.97
37852;BME280;23691;52.486;4.650;2023-02-20T02:13:51;102242.00;;;8.17;91.88
37852;BME280;23691;52.486;4.650;2023-02-20T02:22:43;102240.16;;;8.18;92.27
37852;BME280;23691;52.486;4.650;2023-02-20T02:24:57;102249.00;;;8.18;92.28
37852;BME280;23691;52.486;4.650;2023-02-20T02:41:38;102239.31;;;8.17;92.79
37852;BME280;23691;52.486;4.650;2023-02-20T02:44:14;102243.78;;;8.17;92.78
37852;BME280;23691;52.486;4.650;2023-02-20T02:49:23;102228.66;;;8.17;92.80
37852;BME280;23691;52.486;4.650;2023-02-20T02:51:53;102226.09;;;8.16;93.06
37852;BME280;23691;52.486;4.650;2023-02-20T02:54:22;102215.44;;;8.16;92.88
37852;BME280;23691;52.486;4.650;2023-02-20T02:56:51;102217.13;;;8.17;93.03
37852;BME280;23691;52.486;4.650;2023-02-20T02:59:22;102221.59;;;8.16;92.96
37852;BME280;23691;52.486;4.650;2023-02-20T03:01:54;102217.00;;;8.18;93.13
37852;BME280;23691;52.486;4.650;2023-02-20T03:04:23;102228.53;;;8.19;93.13
37852;BME280;23691;52.486;4.650;2023-02-20T03:06:59;102222.34;;;8.18;93.01
37852;BME280;23691;52.486;4.650;2023-02-20T03:12:14;102205.50;;;8.18;93.22
37852;BME280;23691;52.486;4.650;2023-02-20T03:14:58;102202.50;;;8.23;93.21
37852;BME280;23691;52.486;4.650;2023-02-20T03:18:09;102196.31;;;8.22;93.18
37852;BME280;23691;52.486;4.650;2023-02-20T03:20:41;102194.50;;;8.23;93.19
37852;BME280;23691;52.486;4.650;2023-02-20T03:23:13;102179.34;;;8.23;93.13
37852;BME280;23691;52.486;4.650;2023-02-20T03:25:46;102188.31;;;8.22;92.77
37852;BME280;23691;52.486;4.650;2023-02-20T03:28:18;102184.69;;;8.23;93.12
37852;BME280;23691;52.486;4.650;2023-02-20T03:30:58;102189.91;;;8.25;93.16
37852;BME280;23691;52.486;4.650;2023-02-20T03:33:34;102176.44;;;8.26;93.29
37852;BME280;23691;52.486;4.650;2023-02-20T03:36:36;102186.03;;;8.29;93.26
37852;BME280;23691;52.486;4.650;2023-02-20T03:39:25;102176.44;;;8.26;93.31
37852;BME280;23691;52.486;4.650;2023-02-20T03:42:12;102179.25;;;8.25;93.17
37852;BME280;23691;52.486;4.650;2023-02-20T03:44:59;102170.38;;;8.24;93.29
37852;BME280;23691;52.486;4.650;2023-02-20T03:47:27;102175.69;;;8.24;93.22
37852;BME280;23691;52.486;4.650;2023-02-20T03:49:54;102165.03;;;8.24;93.36
37852;BME280;23691;52.486;4.650;2023-02-20T03:52:20;102167.59;;;8.26;93.41
37852;BME280;23691;52.486;4.650;2023-02-20T03:54:46;102156.81;;;8.27;93.38
37852;BME280;23691;52.486;4.650;2023-02-20T03:57:19;102157.78;;;8.26;93.45
37852;BME280;23691;52.486;4.650;2023-02-20T04:00:02;102165.31;;;8.32;93.58
37852;BME280;23691;52.486;4.650;2023-02-20T04:02:38;102162.66;;;8.32;93.06
37852;BME280;23691;52.486;4.650;2023-02-20T04:05:10;102167.50;;;8.27;93.22
37852;BME280;23691;52.486;4.650;2023-02-20T04:07:44;102161.28;;;8.27;93.35
37852;BME280;23691;52.486;4.650;2023-02-20T04:10:16;102162.16;;;8.27;93.36
37852;BME280;23691;52.486;4.650;2023-02-20T04:12:44;102148.81;;;8.27;93.18
37852;BME280;23691;52.486;4.650;2023-02-20T04:15:11;102149.78;;;8.26;93.23
37852;BME280;23691;52.486;4.650;2023-02-20T04:17:41;102147.25;;;8.25;93.14
37852;BME280;23691;52.486;4.650;2023-02-20T04:20:10;102148.19;;;8.24;93.45
37852;BME280;23691;52.486;4.650;2023-02-20T04:22:38;102156.19;;;8.24;93.18
37852;BME280;23691;52.486;4.650;2023-02-20T04:25:29;102152.69;;;8.23;93.46
37852;BME280;23691;52.486;4.650;2023-02-20T04:27:55;102161.66;;;8.22;93.26
37852;BME280;23691;52.486;4.650;2023-02-20T04:30:21;102163.44;;;8.22;93.19
37852;BME280;23691;52.486;4.650;2023-02-20T04:32:46;102162.59;;;8.21;93.32
37852;BME280;23691;52.486;4.650;2023-02-20T04:35:16;102167.94;;;8.21;93.22
37852;BME280;23691;52.486;4.650;2023-02-20T04:37:42;102159.94;;;8.21;93.55
37852;BME280;23691;52.486;4.650;2023-02-20T04:40:09;102170.50;;;8.23;92.96
37852;BME280;23691;52.486;4.650;2023-02-20T04:42:35;102175.00;;;8.22;93.20
37852;BME280;23691;52.486;4.650;2023-02-20T04:45:00;102174.84;;;8.24;93.03
37852;BME280;23691;52.486;4.650;2023-02-20T04:47:25;102176.78;;;8.22;93.13
37852;BME280;23691;52.486;4.650;2023-02-20T04:49:51;102176.78;;;8.22;93.05
37852;BME280;23691;52.486;4.650;2023-02-20T04:52:16;102180.31;;;8.22;92.99
37852;BME280;23691;52.486;4.650;2023-02-20T04:54:41;102179.34;;;8.23;92.99
37852;BME280;23691;52.486;4.650;2023-02-20T04:57:07;102186.59;;;8.21;93.16
37852;BME280;23691;52.486;4.650;2023-02-20T04:59:32;102180.53;;;8.19;92.69
37852;BME280;23691;52.486;4.650;2023-02-20T05:01:57;102171.69;;;8.18;93.19
37852;BME280;23691;52.486;4.650;2023-02-20T05:04:25;102181.50;;;8.18;92.80
37852;BME280;23691;52.486;4.650;2023-02-20T05:06:52;102174.47;;;8.17;93.03
37852;BME280;23691;52.486;4.650;2023-02-20T05:09:18;102185.03;;;8.18;92.97
37852;BME280;23691;52.486;4.650;2023-02-20T05:11:44;102189.28;;;8.21;92.80
37852;BME280;23691;52.486;4.650;2023-02-20T05:14:10;102175.94;;;8.21;92.65
37852;BME280;23691;52.486;4.650;2023-02-20T05:16:37;102183.94;;;8.21;92.55
37852;BME280;23691;52.486;4.650;2023-02-20T05:19:03;102184.06;;;8.20;92.46
37852;BME280;23691;52.486;4.650;2023-02-20T05:21:28;102170.00;;;8.17;92.52
37852;BME280;23691;52.486;4.650;2023-02-20T05:24:12;102179.94;;;8.15;92.44
37852;BME280;23691;52.486;4.650;2023-02-20T05:26:38;102172.78;;;8.16;92.65
37852;BME280;23691;52.486;4.650;2023-02-20T05:29:03;102176.28;;;8.16;92.50
37852;BME280;23691;52.486;4.650;2023-02-20T05:31:29;102168.44;;;8.15;92.59
37852;BME280;23691;52.486;4.650;2023-02-20T05:33:54;102157.88;;;8.13;92.66
37852;BME280;23691;52.486;4.650;2023-02-20T05:36:19;102156.03;;;8.14;92.53
37852;BME280;23691;52.486;4.650;2023-02-20T05:38:45;102157.75;;;8.15;92.28
37852;BME280;23691;52.486;4.650;2023-02-20T05:41:14;102142.84;;;8.12;92.35
37852;BME280;23691;52.486;4.650;2023-02-20T05:43:39;102149.25;;;8.10;92.42
37852;BME280;23691;52.486;4.650;2023-02-20T05:46:04;102150.94;;;8.11;92.47
37852;BME280;23691;52.486;4.650;2023-02-20T05:48:30;102150.84;;;8.12;92.62
37852;BME280;23691;52.486;4.650;2023-02-20T05:50:55;102148.19;;;8.12;92.61
37852;BME280;23691;52.486;4.650;2023-02-20T05:53:20;102148.19;;;8.12;92.59
37852;BME280;23691;52.486;4.650;2023-02-20T05:55:46;102154.34;;;8.13;92.51
37852;BME280;23691;52.486;4.650;2023-02-20T05:58:11;102153.50;;;8.12;92.52
37852;BME280;23691;52.486;4.650;2023-02-20T06:00:37;102139.44;;;8.10;92.84
37852;BME280;23691;52.486;4.650;2023-02-20T06:03:05;102153.38;;;8.14;92.67
37852;BME280;23691;52.486;4.650;2023-02-20T06:05:31;102150.72;;;8.14;92.39
37852;BME280;23691;52.486;4.650;2023-02-20T06:07:56;102148.19;;;8.12;92.55
37852;BME280;23691;52.486;4.650;2023-02-20T06:10:22;102162.34;;;8.13;92.61
37852;BME280;23691;52.486;4.650;2023-02-20T06:12:47;102167.69;;;8.13;92.46
37852;BME280;23691;52.486;4.650;2023-02-20T06:15:12;102145.38;;;8.14;92.65
37852;BME280;23691;52.486;4.650;2023-02-20T06:17:38;102147.19;;;8.13;92.67
37852;BME280;23691;52.486;4.650;2023-02-20T06:20:03;102154.59;;;8.10;92.57
37852;BME280;23691;52.486;4.650;2023-02-20T06:22:28;102165.13;;;8.11;92.36
37852;BME280;23691;52.486;4.650;2023-02-20T06:24:54;102170.59;;;8.10;92.35
37852;BME280;23691;52.486;4.650;2023-02-20T06:27:19;102165.25;;;8.10;92.59
37852;BME280;23691;52.486;4.650;2023-02-20T06:29:47;102154.59;;;8.10;92.67
37852;BME280;23691;52.486;4.650;2023-02-20T06:32:12;102153.72;;;8.09;92.73
37852;BME280;23691;52.486;4.650;2023-02-20T06:34:38;102147.44;;;8.10;92.58
37852;BME280;23691;52.486;4.650;2023-02-20T06:37:04;102149.03;;;8.13;92.50
37852;BME280;23691;52.486;4.650;2023-02-20T06:39:31;102157.88;;;8.13;92.39
37852;BME280;23691;52.486;4.650;2023-02-20T06:41:56;102145.28;;;8.15;92.33
37852;BME280;23691;52.486;4.650;2023-02-20T06:44:22;102139.09;;;8.15;92.19
37852;BME280;23691;52.486;4.650;2023-02-20T06:46:47;102137.38;;;8.14;92.43
37852;BME280;23691;52.486;4.650;2023-02-20T06:49:13;102146.13;;;8.16;92.38
37852;BME280;23691;52.486;4.650;2023-02-20T06:51:39;102141.75;;;8.15;92.28
37852;BME280;23691;52.486;4.650;2023-02-20T06:54:05;102161.13;;;8.17;92.31
37852;BME280;23691;52.486;4.650;2023-02-20T06:56:34;102145.03;;;8.18;92.33
37852;BME280;23691;52.486;4.650;2023-02-20T06:59:00;102150.25;;;8.20;92.21
37852;BME280;23691;52.486;4.650;2023-02-20T07:01:28;102139.47;;;8.22;92.09
37852;BME280;23691;52.486;4.650;2023-02-20T07:03:56;102157.91;;;8.25;92.17
37852;BME280;23691;52.486;4.650;2023-02-20T07:06:23;102167.34;;;8.29;92.04
37852;BME280;23691;52.486;4.650;2023-02-20T07:08:48;102156.69;;;8.29;92.20
37852;BME280;23691;52.486;4.650;2023-02-20T07:11:16;102153.91;;;8.30;92.13
37852;BME280;23691;52.486;4.650;2023-02-20T07:13:42;102160.81;;;8.33;92.27
37852;BME280;23691;52.486;4.650;2023-02-20T07:16:07;102170.66;;;8.32;91.96
37852;BME280;23691;52.486;4.650;2023-02-20T07:18:32;102171.38;;;8.34;92.11
37852;BME280;23691;52.486;4.650;2023-02-20T07:20:58;102172.09;;;8.36;92.27
37852;BME280;23691;52.486;4.650;2023-02-20T07:23:23;102170.84;;;8.42;92.21
37852;BME280;23691;52.486;4.650;2023-02-20T07:25:49;102181.25;;;8.45;92.18
37852;BME280;23691;52.486;4.650;2023-02-20T07:28:16;102174.09;;;8.46;92.02
37852;BME280;23691;52.486;4.650;2023-02-20T07:30:43;102178.34;;;8.48;92.01
37852;BME280;23691;52.486;4.650;2023-02-20T07:33:08;102172.16;;;8.48;92.13
37852;BME280;23691;52.486;4.650;2023-02-20T07:35:34;102166.59;;;8.51;92.13
37852;BME280;23691;52.486;4.650;2023-02-20T07:37:59;102163.69;;;8.54;92.02
37852;BME280;23691;52.486;4.650;2023-02-20T07:40:24;102170.47;;;8.58;92.07
37852;BME280;23691;52.486;4.650;2023-02-20T07:42:50;102164.19;;;8.59;91.86
37852;BME280;23691;52.486;4.650;2023-02-20T07:45:15;102173.88;;;8.60;92.02
37852;BME280;23691;52.486;4.650;2023-02-20T07:47:40;102168.78;;;8.57;91.79
37852;BME280;23691;52.486;4.650;2023-02-20T07:50:06;102168.66;;;8.58;92.02
37852;BME280;23691;52.486;4.650;2023-02-20T07:52:32;102185.16;;;8.64;91.88
37852;BME280;23691;52.486;4.650;2023-02-20T07:54:57;102189.66;;;8.63;91.69
37852;BME280;23691;52.486;4.650;2023-02-20T07:57:22;102188.06;;;8.60;91.56
37852;BME280;23691;52.486;4.650;2023-02-20T07:59:50;102181.88;;;8.60;91.41
37852;BME280;23691;52.486;4.650;2023-02-20T08:02:19;102181.25;;;8.56;91.26
37852;BME280;23691;52.486;4.650;2023-02-20T08:04:44;102193.66;;;8.57;91.46
37852;BME280;23691;52.486;4.650;2023-02-20T08:07:09;102191.72;;;8.59;91.50
37852;BME280;23691;52.486;4.650;2023-02-20T08:09:35;102176.66;;;8.58;91.32
37852;BME280;23691;52.486;4.650;2023-02-20T08:12:00;102176.06;;;8.66;91.28
37852;BME280;23691;52.486;4.650;2023-02-20T08:14:25;102183.13;;;8.67;91.25
37852;BME280;23691;52.486;4.650;2023-02-20T08:16:53;102172.31;;;8.69;91.17
37852;BME280;23691;52.486;4.650;2023-02-20T08:19:18;102161.53;;;8.70;90.73
37852;BME280;23691;52.486;4.650;2023-02-20T08:21:43;102154.16;;;8.74;91.33
37852;BME280;23691;52.486;4.650;2023-02-20T08:24:09;102177.91;;;8.77;90.98
37852;BME280;23691;52.486;4.650;2023-02-20T08:26:34;102149.41;;;8.77;91.01
37852;BME280;23691;52.486;4.650;2023-02-20T08:29:00;102160.91;;;8.78;90.73
37852;BME280;23691;52.486;4.650;2023-02-20T08:31:25;102155.47;;;8.79;90.64
37852;BME280;23691;52.486;4.650;2023-02-20T08:33:52;102162.13;;;8.85;90.84
37852;BME280;23691;52.486;4.650;2023-02-20T08:36:18;102157.16;;;8.92;90.28
37852;BME280;23691;52.486;4.650;2023-02-20T08:38:44;102158.03;;;9.03;90.23
37852;BME280;23691;52.486;4.650;2023-02-20T08:41:11;102155.34;;;9.03;90.11
37852;BME280;23691;52.486;4.650;2023-02-20T08:43:42;102155.84;;;9.09;89.89
37852;BME280;23691;52.486;4.650;2023-02-20T08:46:09;102138.81;;;9.10;90.03
37852;BME280;23691;52.486;4.650;2023-02-20T08:48:35;102142.00;;;9.03;89.65
37852;BME280;23691;52.486;4.650;2023-02-20T08:51:06;102150.84;;;9.04;89.95
37852;BME280;23691;52.486;4.650;2023-02-20T08:53:32;102154.38;;;9.05;89.82
37852;BME280;23691;52.486;4.650;2023-02-20T08:55:58;102146.00;;;9.09;89.85
37852;BME280;23691;52.486;4.650;2023-02-20T08:58:26;102152.19;;;9.10;89.72
37852;BME280;23691;52.486;4.650;2023-02-20T09:00:52;102161.75;;;9.12;89.62
37852;BME280;23691;52.486;4.650;2023-02-20T09:03:18;102154.38;;;9.16;89.57
37852;BME280;23691;52.486;4.650;2023-02-20T09:05:44;102158.72;;;9.17;89.48
37852;BME280;23691;52.486;4.650;2023-02-20T09:08:09;102163.06;;;9.18;89.09
37852;BME280;23691;52.486;4.650;2023-02-20T09:10:35;102153.13;;;9.20;89.28
37852;BME280;23691;52.486;4.650;2023-02-20T09:13:01;102161.41;;;9.17;89.22
37852;BME280;23691;52.486;4.650;2023-02-20T09:15:26;102158.00;;;9.15;89.23
37852;BME280;23691;52.486;4.650;2023-02-20T09:17:52;102169.50;;;9.15;89.50
37852;BME280;23691;52.486;4.650;2023-02-20T09:20:20;102160.81;;;9.13;89.45
37852;BME280;23691;52.486;4.650;2023-02-20T09:22:46;102149.03;;;9.16;89.33
37852;BME280;23691;52.486;4.650;2023-02-20T09:25:13;102158.47;;;9.20;89.08
37852;BME280;23691;52.486;4.650;2023-02-20T09:27:38;102173.16;;;9.26;89.17
37852;BME280;23691;52.486;4.650;2023-02-20T09:30:04;102167.22;;;9.33;89.06
37852;BME280;23691;52.486;4.650;2023-02-20T09:32:30;102154.66;;;9.45;88.70
37852;BME280;23691;52.486;4.650;2023-02-20T09:34:55;102153.91;;;9.54;88.44
37852;BME280;23691;52.486;4.650;2023-02-20T09:37:22;102156.59;;;9.54;88.45
37852;BME280;23691;52.486;4.650;2023-02-20T09:39:47;102159.03;;;9.46;88.45
37852;BME280;23691;52.486;4.650;2023-02-20T09:42:30;102164.66;;;9.43;88.43
37852;BME280;23691;52.486;4.650;2023-02-20T09:47:46;102145.44;;;9.49;88.21
37852;BME280;23691;52.486;4.650;2023-02-20T09:50:20;102126.72;;;9.49;88.40
37852;BME280;23691;52.486;4.650;2023-02-20T09:52:58;102138.97;;;9.52;88.15
37852;BME280;23691;52.486;4.650;2023-02-20T09:55:33;102134.94;;;9.57;87.80
37852;BME280;23691;52.486;4.650;2023-02-20T09:57:59;102153.88;;;9.65;87.54
37852;BME280;23691;52.486;4.650;2023-02-20T10:00:31;102142.69;;;9.72;87.41
37852;BME280;23691;52.486;4.650;2023-02-20T10:05:45;102146.63;;;9.88;86.65
37852;BME280;23691;52.486;4.650;2023-02-20T10:08:15;102143.56;;;9.93;86.59
37852;BME280;23691;52.486;4.650;2023-02-20T10:10:41;102151.97;;;9.88;86.57
37852;BME280;23691;52.486;4.650;2023-02-20T10:13:31;102140.31;;;9.89;86.49
37852;BME280;23691;52.486;4.650;2023-02-20T10:19:32;102126.81;;;9.91;86.29
37852;BME280;23691;52.486;4.650;2023-02-20T10:29:55;102150.75;;;9.93;85.97
37852;BME280;23691;52.486;4.650;2023-02-20T10:32:27;102161.19;;;9.96;86.03
37852;BME280;23691;52.486;4.650;2023-02-20T10:37:28;102153.75;;;9.99;85.50
37852;BME280;23691;52.486;4.650;2023-02-20T10:40:04;102146.19;;;10.04;85.24
37852;BME280;23691;52.486;4.650;2023-02-20T10:42:40;102141.69;;;10.05;84.92
37852;BME280;23691;52.486;4.650;2023-02-20T10:48:09;102143.06;;;10.20;85.04
37852;BME280;23691;52.486;4.650;2023-02-20T10:56:05;102174.50;;;10.39;84.67
37852;BME280;23691;52.486;4.650;2023-02-20T11:01:09;102187.03;;;10.27;84.39
37852;BME280;23691;52.486;4.650;2023-02-20T11:06:18;102148.41;;;10.31;83.99
37852;BME280;23691;52.486;4.650;2023-02-20T11:08:44;102154.91;;;10.39;83.89
37852;BME280;23691;52.486;4.650;2023-02-20T11:11:24;102169.66;;;10.54;83.86
37852;BME280;23691;52.486;4.650;2023-02-20T11:13:50;102165.97;;;10.55;83.63
37852;BME280;23691;52.486;4.650;2023-02-20T11:16:27;102151.22;;;10.61;83.11
37852;BME280;23691;52.486;4.650;2023-02-20T11:19:01;102166.59;;;10.59;83.01
37852;BME280;23691;52.486;4.650;2023-02-20T11:21:49;102177.22;;;10.49;83.01
37852;BME280;23691;52.486;4.650;2023-02-20T11:24:30;102163.97;;;10.47;83.05
37852;BME280;23691;52.486;4.650;2023-02-20T11:27:11;102158.50;;;10.49;82.89
37852;BME280;23691;52.486;4.650;2023-02-20T11:29:50;102148.50;;;10.51;82.98
37852;BME280;23691;52.486;4.650;2023-02-20T11:32:21;102126.00;;;10.53;82.86
37852;BME280;23691;52.486;4.650;2023-02-20T11:37:42;102134.38;;;10.70;82.64
37852;BME280;23691;52.486;4.650;2023-02-20T11:40:19;102146.84;;;10.81;82.20
37852;BME280;23691;52.486;4.650;2023-02-20T11:42:45;102146.22;;;10.77;82.01
37852;BME280;23691;52.486;4.650;2023-02-20T11:47:41;102164.47;;;10.62;81.99
37852;BME280;23691;52.486;4.650;2023-02-20T11:50:19;102148.69;;;10.59;82.12
37852;BME280;23691;52.486;4.650;2023-02-20T11:53:01;102132.63;;;10.59;82.19
37852;BME280;23691;52.486;4.650;2023-02-20T11:55:29;102120.53;;;10.65;82.27
37852;BME280;23691;52.486;4.650;2023-02-20T11:57:54;102123.69;;;10.80;81.86
37852;BME280;23691;52.486;4.650;2023-02-20T12:00:25;102137.00;;;10.91;81.96
37852;BME280;23691;52.486;4.650;2023-02-20T12:03:03;102145.78;;;11.03;81.50
37852;BME280;23691;52.486;4.650;2023-02-20T12:05:46;102141.69;;;10.99;80.99
37852;BME280;23691;52.486;4.650;2023-02-20T12:10:52;102130.59;;;11.13;80.51
37852;BME280;23691;52.486;4.650;2023-02-20T12:13:20;102133.13;;;11.14;80.34
37852;BME280;23691;52.486;4.650;2023-02-20T12:15:55;102133.00;;;11.16;80.26
37852;BME280;23691;52.486;4.650;2023-02-20T12:18:35;102124.25;;;11.24;80.29
37852;BME280;23691;52.486;4.650;2023-02-20T12:21:14;102136.91;;;11.12;80.06
37852;BME280;23691;52.486;4.650;2023-02-20T12:29:40;102111.31;;;10.79;81.06
37852;BME280;23691;52.486;4.650;2023-02-20T12:32:30;102118.06;;;10.83;80.92
37852;BME280;23691;52.486;4.650;2023-02-20T12:46:20;102108.84;;;10.96;80.50
37852;BME280;23691;52.486;4.650;2023-02-20T12:49:03;102106.09;;;11.17;80.33
37852;BME280;23691;52.486;4.650;2023-02-20T12:54:16;102091.00;;;11.26;80.19
37852;BME280;23691;52.486;4.650;2023-02-20T12:59:52;102099.34;;;11.52;78.61
37852;BME280;23691;52.486;4.650;2023-02-20T13:02:26;102094.00;;;11.43;78.66
37852;BME280;23691;52.486;4.650;2023-02-20T13:04:56;102086.38;;;11.38;78.58
37852;BME280;23691;52.486;4.650;2023-02-20T13:09:59;102083.09;;;11.25;78.84
37852;BME280;23691;52.486;4.650;2023-02-20T13:12:26;102086.34;;;11.18;78.94
37852;BME280;23691;52.486;4.650;2023-02-20T13:17:52;102095.19;;;11.09;79.27
37852;BME280;23691;52.486;4.650;2023-02-20T13:20:23;102100.69;;;11.08;79.42
37852;BME280;23691;52.486;4.650;2023-02-20T13:25:48;102092.47;;;11.00;79.40
37852;BME280;23691;52.486;4.650;2023-02-20T13:31:08;102091.09;;;10.95;79.70
37852;BME280;23691;52.486;4.650;2023-02-20T13:33:35;102079.94;;;10.90;79.82
37852;BME280;23691;52.486;4.650;2023-02-20T13:36:02;102083.19;;;10.94;79.79
37852;BME280;23691;52.486;4.650;2023-02-20T13:38:27;102091.75;;;10.88;80.06
37852;BME280;23691;52.486;4.650;2023-02-20T13:43:37;102076.34;;;10.80;79.98
37852;BME280;23691;52.486;4.650;2023-02-20T13:48:46;102089.59;;;10.72;80.82
37852;BME280;23691;52.486;4.650;2023-02-20T13:54:13;102084.34;;;10.70;80.64
37852;BME280;23691;52.486;4.650;2023-02-20T13:57:12;102080.72;;;10.71;80.62
37852;BME280;23691;52.486;4.650;2023-02-20T13:59:39;102098.84;;;10.68;81.13
37852;BME280;23691;52.486;4.650;2023-02-20T14:02:14;102093.25;;;10.71;81.02
37852;BME280;23691;52.486;4.650;2023-02-20T14:04:52;102076.91;;;10.74;80.93
37852;BME280;23691;52.486;4.650;2023-02-20T14:07:27;102064.09;;;10.78;80.89
37852;BME280;23691;52.486;4.650;2023-02-20T14:10:01;102086.66;;;10.85;80.95
37852;BME280;23691;52.486;4.650;2023-02-20T14:12:27;102072.16;;;10.87;80.53
37852;BME280;23691;52.486;4.650;2023-02-20T14:15:15;102067.78;;;10.86;80.54
37852;BME280;23691;52.486;4.650;2023-02-20T14:17:51;102070.75;;;10.83;80.77
37852;BME280;23691;52.486;4.650;2023-02-20T14:20:30;102062.84;;;10.82;80.61
37852;BME280;23691;52.486;4.650;2023-02-20T14:25:37;102062.09;;;10.70;80.46
37852;BME280;23691;52.486;4.650;2023-02-20T14:28:05;102080.66;;;10.62;80.79
37852;BME280;23691;52.486;4.650;2023-02-20T14:30:31;102058.38;;;10.51;81.05
37852;BME280;23691;52.486;4.650;2023-02-20T14:32:58;102050.47;;;10.50;81.39
37852;BME280;23691;52.486;4.650;2023-02-20T14:38:33;102045.84;;;10.52;81.30
37852;BME280;23691;52.486;4.650;2023-02-20T14:41:11;102062.63;;;10.54;81.04
37852;BME280;23691;52.486;4.650;2023-02-20T14:43:36;102054.59;;;10.54;80.85
37852;BME280;23691;52.486;4.650;2023-02-20T14:46:04;102045.28;;;10.48;81.21
37852;BME280;23691;52.486;4.650;2023-02-20T14:48:32;102048.06;;;10.47;81.13
37852;BME280;23691;52.486;4.650;2023-02-20T14:51:24;102041.97;;;10.35;81.36
37852;BME280;23691;52.486;4.650;2023-02-20T14:57:47;102044.34;;;10.38;81.71
37852;BME280;23691;52.486;4.650;2023-02-20T15:04:00;102036.94;;;10.42;81.47
37852;BME280;23691;52.486;4.650;2023-02-20T15:06:29;102055.06;;;10.38;81.75
37852;BME280;23691;52.486;4.650;2023-02-20T15:08:59;102059.44;;;10.39;81.60
37852;BME280;23691;52.486;4.650;2023-02-20T15:11:25;102061.53;;;10.36;81.58
37852;BME280;23691;52.486;4.650;2023-02-20T15:13:51;102056.78;;;10.39;82.00